Time;durP1;ratioP1;P1;durP2;ratioP2;P2;SDS_P1;SDS_P2;PMS_P1;PMS_P2;Temp;Humidity;BMP_temperature;BMP_pressure;BME280_temperature;BME280_humidity;BME280_pressure;Samples;Min_cycle;Max_cycle;Signal;HPM_P1;HPM_P2
2024/01/09 00:02:31;;;;;;;31.53;12.90;;;;;;;;;;10368365;28;20212;-66
2024/01/09 00:07:32;;;;;;;34.27;12.77;;;;;;;;;;10371336;28;20548;-65
2024/01/09 00:12:32;;;;;;;33.47;13.50;;;;;;;;;;10371071;28;20196;-66
2024/01/09 00:17:32;;;;;;;30.13;12.80;;;;;;;;;;10371081;28;20525;-65
2024/01/09 00:22:33;;;;;;;29.80;11.83;;;;;;;;;;10368420;28;20297;-65
2024/01/09 00:27:33;;;;;;;39.88;14.73;;;;;;;;;;10370779;28;20230;-65
2024/01/09 00:32:33;;;;;;;35.22;14.65;;;;;;;;;;10370663;28;20192;-67
2024/01/09 00:37:33;;;;;;;36.37;13.30;;;;;;;;;;10367745;28;20756;-67
2024/01/09 00:42:34;;;;;;;28.63;10.90;;;;;;;;;;10370243;28;20203;-66
2024/01/09 00:47:35;;;;;;;32.10;10.57;;;;;;;;;;10369264;28;20239;-66
2024/01/09 00:52:35;;;;;;;38.00;13.90;;;;;;;;;;10370080;28;20245;-67
2024/01/09 00:57:35;;;;;;;33.93;13.40;;;;;;;;;;10366726;28;20270;-66
2024/01/09 01:02:35;;;;;;;27.63;13.13;;;;;;;;;;10369562;28;20195;-67
2024/01/09 01:07:36;;;;;;;33.87;14.17;;;;;;;;;;10369173;28;20204;-67
2024/01/09 01:12:36;;;;;;;27.17;11.10;;;;;;;;;;10368977;28;20438;-67
2024/01/09 01:17:36;;;;;;;30.57;12.13;;;;;;;;;;10366174;28;20226;-67
2024/01/09 01:22:37;;;;;;;36.10;14.13;;;;;;;;;;10369023;28;20677;-67
2024/01/09 01:27:37;;;;;;;20.20;9.13;;;;;;;;;;10368877;28;20575;-68
2024/01/09 01:32:37;;;;;;;19.13;9.57;;;;;;;;;;10368663;28;20679;-66
2024/01/09 01:37:37;;;;;;;27.13;12.03;;;;;;;;;;10365875;28;20215;-66
2024/01/09 01:42:37;;;;;;;26.30;10.80;;;;;;;;;;10368534;28;20187;-67
2024/01/09 01:47:38;;;;;;;39.73;12.87;;;;;;;;;;10367968;28;20325;-67
2024/01/09 01:52:39;;;;;;;28.17;12.07;;;;;;;;;;10367517;28;20568;-67
2024/01/09 01:57:40;;;;;;;32.03;13.10;;;;;;;;;;10366340;28;20216;-67
2024/01/09 02:02:41;;;;;;;31.87;13.27;;;;;;;;;;10367623;28;20206;-67
2024/01/09 02:07:44;;;;;;;29.27;13.47;;;;;;;;;;10368018;28;20215;-68
2024/01/09 02:12:44;;;;;;;30.03;12.80;;;;;;;;;;10365250;28;20664;-67
2024/01/09 02:17:45;;;;;;;28.35;13.40;;;;;;;;;;10367712;28;20338;-67
2024/01/09 02:22:45;;;;;;;30.83;12.55;;;;;;;;;;10367426;28;20188;-67
2024/01/09 02:27:45;;;;;;;33.07;13.20;;;;;;;;;;10373633;28;20694;-68
2024/01/09 02:32:46;;;;;;;46.23;16.60;;;;;;;;;;10373018;28;20644;-67
2024/01/09 02:37:46;;;;;;;53.77;20.23;;;;;;;;;;10375820;28;20218;-67
2024/01/09 02:42:47;;;;;;;35.10;15.83;;;;;;;;;;10374913;28;20230;-66
2024/01/09 02:47:47;;;;;;;33.93;13.30;;;;;;;;;;10374661;28;20237;-67
2024/01/09 02:52:47;;;;;;;37.37;13.40;;;;;;;;;;10371808;28;20259;-67
2024/01/09 02:57:47;;;;;;;36.13;14.60;;;;;;;;;;10373871;28;20730;-67
2024/01/09 03:02:48;;;;;;;28.97;12.10;;;;;;;;;;10374168;28;20196;-68
2024/01/09 03:07:48;;;;;;;31.43;13.10;;;;;;;;;;10374001;28;20249;-68
2024/01/09 03:12:48;;;;;;;36.10;13.00;;;;;;;;;;10371286;28;20189;-67
2024/01/09 03:17:48;;;;;;;25.60;12.53;;;;;;;;;;10373529;28;20462;-66
2024/01/09 03:22:49;;;;;;;24.13;9.17;;;;;;;;;;10373857;28;20210;-67
2024/01/09 03:27:50;;;;;;;31.63;12.57;;;;;;;;;;10370644;28;20213;-67
2024/01/09 03:32:50;;;;;;;26.67;11.90;;;;;;;;;;10372954;28;20472;-68
2024/01/09 03:37:51;;;;;;;28.87;11.77;;;;;;;;;;10372051;28;20241;-68
2024/01/09 03:42:51;;;;;;;30.60;11.63;;;;;;;;;;10372595;28;20281;-67
2024/01/09 03:47:51;;;;;;;30.60;13.03;;;;;;;;;;10369608;28;20240;-67
2024/01/09 03:52:51;;;;;;;39.20;12.27;;;;;;;;;;10372297;28;20261;-66
2024/01/09 03:57:51;;;;;;;25.53;11.00;;;;;;;;;;10372061;28;20560;-67
2024/01/09 04:02:51;;;;;;;32.23;12.40;;;;;;;;;;10371899;28;20207;-68
2024/01/09 04:07:52;;;;;;;33.47;11.73;;;;;;;;;;10368831;28;20210;-67
2024/01/09 04:12:52;;;;;;;45.67;17.07;;;;;;;;;;10371095;28;20925;-67
2024/01/09 04:17:52;;;;;;;29.43;11.90;;;;;;;;;;10371128;28;20202;-67
2024/01/09 04:22:53;;;;;;;32.87;13.23;;;;;;;;;;10371244;28;20190;-67
2024/01/09 04:27:53;;;;;;;33.47;11.97;;;;;;;;;;10367799;28;20226;-68
2024/01/09 04:32:53;;;;;;;28.13;10.47;;;;;;;;;;10371094;28;20190;-68
2024/01/09 04:37:53;;;;;;;39.53;14.27;;;;;;;;;;10370464;28;20280;-67
2024/01/09 04:42:53;;;;;;;28.53;12.13;;;;;;;;;;10370448;28;20445;-67
2024/01/09 04:47:53;;;;;;;22.47;10.83;;;;;;;;;;10367114;28;20256;-67
2024/01/09 04:52:54;;;;;;;23.63;10.57;;;;;;;;;;10370371;28;20545;-67
2024/01/09 04:57:54;;;;;;;36.03;12.87;;;;;;;;;;10370060;28;20213;-66
2024/01/09 05:02:54;;;;;;;29.50;11.80;;;;;;;;;;10366667;28;20190;-66
2024/01/09 05:07:54;;;;;;;32.33;12.33;;;;;;;;;;10369649;28;20306;-66
2024/01/09 05:12:54;;;;;;;28.37;13.10;;;;;;;;;;10369379;28;20649;-66
2024/01/09 05:17:54;;;;;;;35.27;13.50;;;;;;;;;;10391184;23;20452;-64
2024/01/09 05:22:55;;;;;;;29.93;11.37;;;;;;;;;;10402061;28;20207;-66
2024/01/09 05:27:55;;;;;;;41.15;16.55;;;;;;;;;;10408233;28;20623;-65
2024/01/09 05:32:56;;;;;;;24.93;10.77;;;;;;;;;;10367893;28;20606;-65
2024/01/09 05:37:56;;;;;;;31.53;11.30;;;;;;;;;;10365556;28;20183;-66
2024/01/09 05:42:56;;;;;;;30.17;13.38;;;;;;;;;;10368345;28;20189;-65
2024/01/09 05:47:56;;;;;;;34.03;14.25;;;;;;;;;;10367809;28;20337;-66
2024/01/09 05:52:56;;;;;;;27.30;11.93;;;;;;;;;;10368261;28;20243;-65
2024/01/09 05:57:57;;;;;;;35.50;13.17;;;;;;;;;;10364841;28;20851;-65
2024/01/09 06:02:57;;;;;;;37.20;15.60;;;;;;;;;;10379101;28;20193;-66
2024/01/09 06:07:57;;;;;;;40.73;15.50;;;;;;;;;;10381063;28;20193;-66
2024/01/09 06:12:58;;;;;;;34.43;13.93;;;;;;;;;;10381168;28;20282;-65
2024/01/09 06:17:58;;;;;;;39.70;15.80;;;;;;;;;;10378132;28;20187;-65
2024/01/09 06:22:58;;;;;;;36.87;15.17;;;;;;;;;;10380821;28;20185;-64
2024/01/09 06:27:58;;;;;;;40.45;14.82;;;;;;;;;;10381010;28;20561;-66
2024/01/09 06:32:58;;;;;;;40.55;14.77;;;;;;;;;;10381656;28;20562;-67
2024/01/09 06:37:59;;;;;;;40.27;14.00;;;;;;;;;;10370354;28;20187;-65
2024/01/09 06:42:59;;;;;;;27.13;12.07;;;;;;;;;;10373132;28;20239;-66
2024/01/09 06:47:59;;;;;;;35.87;15.53;;;;;;;;;;10371657;28;20927;-64
2024/01/09 06:52:59;;;;;;;44.23;17.97;;;;;;;;;;10374523;28;20216;-67
2024/01/09 06:58:01;;;;;;;29.63;13.18;;;;;;;;;;10366227;28;20265;-66
2024/01/09 07:03:02;;;;;;;38.27;16.90;;;;;;;;;;10370912;28;20726;-65
2024/01/09 07:08:03;;;;;;;36.78;16.00;;;;;;;;;;10378462;28;20242;-64
2024/01/09 07:13:03;;;;;;;35.80;13.37;;;;;;;;;;10373527;28;20185;-65
2024/01/09 07:18:03;;;;;;;31.07;12.93;;;;;;;;;;10365082;28;20190;-65
2024/01/09 07:23:03;;;;;;;40.10;15.90;;;;;;;;;;10373569;28;20189;-64
2024/01/09 07:28:04;;;;;;;29.47;13.43;;;;;;;;;;10373090;28;20336;-66
2024/01/09 07:33:04;;;;;;;36.87;13.30;;;;;;;;;;10370324;28;20197;-65
2024/01/09 07:38:04;;;;;;;42.93;17.50;;;;;;;;;;10372791;28;20222;-65
2024/01/09 07:43:04;;;;;;;39.37;14.40;;;;;;;;;;10372475;28;20213;-65
2024/01/09 07:48:05;;;;;;;36.53;15.27;;;;;;;;;;10372497;28;20189;-65
2024/01/09 07:53:05;;;;;;;42.87;15.10;;;;;;;;;;10369246;28;20626;-65
2024/01/09 07:58:06;;;;;;;37.17;15.10;;;;;;;;;;10372177;28;20269;-66
2024/01/09 08:03:06;;;;;;;38.77;15.20;;;;;;;;;;10359104;28;20195;-65
2024/01/09 08:08:06;;;;;;;49.20;16.10;;;;;;;;;;10369226;28;20183;-65
2024/01/09 08:13:06;;;;;;;46.97;17.83;;;;;;;;;;10367383;28;20430;-64
2024/01/09 08:18:06;;;;;;;133.07;28.83;;;;;;;;;;10369245;28;20841;-66
2024/01/09 08:23:07;;;;;;;38.47;13.57;;;;;;;;;;10366036;28;20451;-67
2024/01/09 08:28:07;;;;;;;37.87;14.03;;;;;;;;;;10363611;28;20189;-66
2024/01/09 08:33:07;;;;;;;34.50;14.83;;;;;;;;;;10367728;28;20185;-66
2024/01/09 08:38:07;;;;;;;28.20;12.87;;;;;;;;;;10357255;28;20815;-66
2024/01/09 08:43:07;;;;;;;34.43;14.13;;;;;;;;;;10357589;28;20827;-67
2024/01/09 08:48:08;;;;;;;35.27;15.80;;;;;;;;;;10357803;28;20177;-67
2024/01/09 08:53:08;;;;;;;32.38;15.05;;;;;;;;;;10365750;28;20278;-67
2024/01/09 08:58:08;;;;;;;30.20;15.37;;;;;;;;;;10361261;28;20889;-67
2024/01/09 09:03:08;;;;;;;37.00;17.00;;;;;;;;;;10363797;28;20203;-67
2024/01/09 09:08:08;;;;;;;37.93;18.53;;;;;;;;;;10360985;28;20223;-67
2024/01/09 09:13:09;;;;;;;50.17;17.97;;;;;;;;;;10356721;28;20212;-67
2024/01/09 09:18:10;;;;;;;42.00;17.93;;;;;;;;;;10359022;28;20551;-67
2024/01/09 09:23:10;;;;;;;43.50;18.20;;;;;;;;;;10365471;28;20243;-68
2024/01/09 09:28:10;;;;;;;46.33;21.10;;;;;;;;;;10363594;28;20211;-67
2024/01/09 09:33:10;;;;;;;37.30;18.73;;;;;;;;;;10344235;28;20189;-68
2024/01/09 09:38:11;;;;;;;45.37;22.43;;;;;;;;;;10362727;28;20295;-67
2024/01/09 09:43:14;;;;;;;42.97;22.70;;;;;;;;;;10364318;28;20190;-68
2024/01/09 09:48:16;;;;;;;51.23;24.53;;;;;;;;;;10361471;28;20224;-68
2024/01/09 09:53:18;;;;;;;47.27;23.73;;;;;;;;;;10366096;28;20182;-68
2024/01/09 09:58:18;;;;;;;45.77;20.63;;;;;;;;;;10364424;28;20205;-69
2024/01/09 10:03:19;;;;;;;44.80;21.53;;;;;;;;;;10361001;28;20213;-68
2024/01/09 10:08:20;;;;;;;43.20;20.20;;;;;;;;;;10360611;28;20254;-68
2024/01/09 10:13:20;;;;;;;46.67;20.60;;;;;;;;;;10364127;28;20223;-68
2024/01/09 10:18:20;;;;;;;45.23;21.20;;;;;;;;;;10354329;28;20241;-67
2024/01/09 10:23:20;;;;;;;34.90;19.50;;;;;;;;;;10353485;28;20245;-67
2024/01/09 10:28:21;;;;;;;39.37;19.90;;;;;;;;;;10356912;28;20278;-68
2024/01/09 10:33:22;;;;;;;45.63;20.87;;;;;;;;;;10364001;28;20443;-66
2024/01/09 10:38:23;;;;;;;36.07;20.70;;;;;;;;;;10358362;28;20275;-68
2024/01/09 10:43:23;;;;;;;43.13;19.73;;;;;;;;;;10356917;28;20295;-66
2024/01/09 10:48:24;;;;;;;37.60;21.50;;;;;;;;;;10359481;28;20217;-65
2024/01/09 10:53:26;;;;;;;42.33;21.33;;;;;;;;;;10371078;28;20190;-73
2024/01/09 10:58:26;;;;;;;40.70;20.80;;;;;;;;;;10367366;28;20590;-68
2024/01/09 11:03:27;;;;;;;41.40;20.60;;;;;;;;;;10359268;28;20217;-68
2024/01/09 11:08:27;;;;;;;40.07;20.87;;;;;;;;;;10362059;28;20210;-68
2024/01/09 11:13:28;;;;;;;43.67;21.83;;;;;;;;;;10370674;28;20239;-69
2024/01/09 11:18:28;;;;;;;40.10;20.93;;;;;;;;;;10370796;28;20264;-69
2024/01/09 11:23:43;;;;;;;37.83;21.27;;;;;;;;;;10365650;28;20232;-70
2024/01/09 11:28:45;;;;;;;45.80;21.20;;;;;;;;;;10369350;28;20753;-68
2024/01/09 11:33:54;;;;;;;39.00;21.23;;;;;;;;;;10369854;28;20285;-68
2024/01/09 11:38:54;;;;;;;37.17;20.43;;;;;;;;;;10366548;28;20213;-69
2024/01/09 11:44:01;;;;;;;39.00;20.00;;;;;;;;;;10363163;28;20294;-68
2024/01/09 11:49:02;;;;;;;42.50;19.07;;;;;;;;;;10363523;28;20210;-69
2024/01/09 11:54:03;;;;;;;38.30;21.27;;;;;;;;;;10368605;28;20193;-68
2024/01/09 11:59:03;;;;;;;35.33;19.67;;;;;;;;;;10365141;28;20588;-69
2024/01/09 12:04:03;;;;;;;34.27;19.43;;;;;;;;;;10368144;28;20235;-69
2024/01/09 12:09:04;;;;;;;38.50;20.10;;;;;;;;;;10385491;23;20630;-70
2024/01/09 12:14:05;;;;;;;37.33;19.93;;;;;;;;;;10398072;28;20197;-70
2024/01/09 12:19:05;;;;;;;41.27;21.87;;;;;;;;;;10402436;28;20267;-70
2024/01/09 12:24:06;;;;;;;39.57;22.00;;;;;;;;;;10366066;28;20756;-71
2024/01/09 12:29:07;;;;;;;44.10;22.13;;;;;;;;;;10363063;28;20683;-71
2024/01/09 12:34:07;;;;;;;43.57;22.33;;;;;;;;;;10367195;28;20181;-71
2024/01/09 12:39:12;;;;;;;39.93;22.00;;;;;;;;;;10367217;28;20271;-72
2024/01/09 12:44:12;;;;;;;43.00;23.80;;;;;;;;;;10362874;28;20336;-72
2024/01/09 12:49:13;;;;;;;48.47;22.53;;;;;;;;;;10364152;28;20223;-71
2024/01/09 12:54:16;;;;;;;43.87;21.90;;;;;;;;;;10367004;28;20223;-71
2024/01/09 12:59:21;;;;;;;41.57;21.63;;;;;;;;;;10366443;28;20305;-70
2024/01/09 13:04:21;;;;;;;101.23;36.60;;;;;;;;;;10366319;28;20221;-71
2024/01/09 13:09:21;;;;;;;112.20;42.67;;;;;;;;;;10358020;28;20240;-71
2024/01/09 13:14:22;;;;;;;96.27;39.93;;;;;;;;;;10362802;28;20263;-71
2024/01/09 13:19:22;;;;;;;89.60;37.70;;;;;;;;;;10356313;28;20471;-71
2024/01/09 13:24:22;;;;;;;49.63;24.97;;;;;;;;;;10365173;28;20534;-71
2024/01/09 13:29:25;;;;;;;47.37;23.03;;;;;;;;;;10361803;28;20571;-70
2024/01/09 13:34:25;;;;;;;43.57;22.13;;;;;;;;;;10364231;28;20287;-71
2024/01/09 13:39:28;;;;;;;41.10;21.23;;;;;;;;;;10364679;28;20217;-71
2024/01/09 13:44:28;;;;;;;48.13;24.13;;;;;;;;;;10361572;28;20587;-71
2024/01/09 13:49:29;;;;;;;58.03;27.47;;;;;;;;;;10362048;28;20215;-69
2024/01/09 13:54:29;;;;;;;56.37;26.57;;;;;;;;;;10362687;28;20708;-69
2024/01/09 13:59:29;;;;;;;63.77;28.83;;;;;;;;;;10354884;28;20213;-69
2024/01/09 14:04:29;;;;;;;56.77;26.10;;;;;;;;;;10350305;28;20312;-70
2024/01/09 14:09:30;;;;;;;54.73;26.70;;;;;;;;;;10352873;28;20317;-67
2024/01/09 14:14:30;;;;;;;49.67;23.93;;;;;;;;;;10352709;28;20206;-68
2024/01/09 14:19:30;;;;;;;47.17;23.20;;;;;;;;;;10352300;28;20232;-69
2024/01/09 14:24:31;;;;;;;51.10;23.37;;;;;;;;;;10366147;28;20220;-68
2024/01/09 14:29:31;;;;;;;50.60;21.63;;;;;;;;;;10367813;28;20217;-68
2024/01/09 14:34:31;;;;;;;51.77;24.67;;;;;;;;;;10371674;28;20203;-68
2024/01/09 14:39:33;;;;;;;52.33;22.10;;;;;;;;;;10371171;28;20331;-69
2024/01/09 14:44:33;;;;;;;49.27;23.27;;;;;;;;;;10370885;28;20236;-69
2024/01/09 14:49:33;;;;;;;58.47;23.03;;;;;;;;;;10368612;28;20750;-68
2024/01/09 14:54:34;;;;;;;50.47;23.80;;;;;;;;;;10369041;28;20192;-68
2024/01/09 14:59:34;;;;;;;57.00;24.90;;;;;;;;;;10371257;28;20268;-69
2024/01/09 15:04:36;;;;;;;60.43;23.20;;;;;;;;;;10359568;28;20224;-68
2024/01/09 15:09:36;;;;;;;55.57;25.43;;;;;;;;;;10358585;28;20329;-68
2024/01/09 15:14:36;;;;;;;56.40;24.33;;;;;;;;;;10358477;28;20643;-69
2024/01/09 15:19:37;;;;;;;59.07;23.80;;;;;;;;;;10359890;28;20211;-69
2024/01/09 15:24:37;;;;;;;62.15;27.73;;;;;;;;;;10358832;28;20217;-69
2024/01/09 15:29:37;;;;;;;65.60;25.97;;;;;;;;;;10364348;28;20224;-69
2024/01/09 15:34:37;;;;;;;119.20;50.17;;;;;;;;;;10369048;28;20433;-69
2024/01/09 15:39:38;;;;;;;112.90;37.73;;;;;;;;;;10369810;28;20216;-69
2024/01/09 15:44:38;;;;;;;182.87;57.23;;;;;;;;;;10369176;28;20242;-69
2024/01/09 15:49:38;;;;;;;69.90;27.87;;;;;;;;;;10367232;28;20217;-69
2024/01/09 15:54:41;;;;;;;66.15;26.08;;;;;;;;;;10369985;28;20259;-69
2024/01/09 15:59:41;;;;;;;66.70;27.23;;;;;;;;;;10365959;28;20221;-69
2024/01/09 16:04:44;;;;;;;73.47;30.63;;;;;;;;;;10365794;28;20224;-71
2024/01/09 16:09:44;;;;;;;75.63;30.67;;;;;;;;;;10367583;28;20648;-72
2024/01/09 16:14:45;;;;;;;90.90;33.10;;;;;;;;;;10369833;28;20198;-69
2024/01/09 16:19:46;;;;;;;102.25;38.03;;;;;;;;;;10368243;28;20216;-69
2024/01/09 16:24:46;;;;;;;89.27;38.00;;;;;;;;;;10367535;28;20213;-69
2024/01/09 16:29:46;;;;;;;79.00;35.83;;;;;;;;;;10370195;28;20213;-71
2024/01/09 16:34:47;;;;;;;57.17;22.67;;;;;;;;;;10370187;28;20228;-72
2024/01/09 16:39:47;;;;;;;64.83;25.03;;;;;;;;;;10368274;28;20215;-69
2024/01/09 16:44:47;;;;;;;68.83;29.53;;;;;;;;;;10366116;28;20216;-69
2024/01/09 16:49:48;;;;;;;59.10;24.47;;;;;;;;;;10368926;28;20576;-70
2024/01/09 16:54:48;;;;;;;68.73;29.10;;;;;;;;;;10369409;28;20189;-70
2024/01/09 16:59:48;;;;;;;73.47;30.90;;;;;;;;;;10368481;28;20212;-71
2024/01/09 17:04:49;;;;;;;69.30;30.83;;;;;;;;;;10365860;28;20229;-70
2024/01/09 17:09:50;;;;;;;66.50;30.37;;;;;;;;;;10368089;28;20264;-70
2024/01/09 17:14:50;;;;;;;71.23;29.63;;;;;;;;;;10367315;28;20201;-70
2024/01/09 17:19:51;;;;;;;75.40;33.37;;;;;;;;;;10367855;28;20236;-70
2024/01/09 17:24:51;;;;;;;96.03;40.83;;;;;;;;;;10364961;28;20303;-70
2024/01/09 17:29:51;;;;;;;93.23;39.50;;;;;;;;;;10367708;28;20295;-70
2024/01/09 17:34:52;;;;;;;71.03;26.10;;;;;;;;;;10366389;28;20189;-70
2024/01/09 17:39:52;;;;;;;59.70;24.30;;;;;;;;;;10364478;28;20241;-70
2024/01/09 17:44:52;;;;;;;61.70;27.73;;;;;;;;;;10367376;28;20217;-71
2024/01/09 17:49:52;;;;;;;65.57;26.67;;;;;;;;;;10366763;28;20732;-70
2024/01/09 17:54:54;;;;;;;58.73;26.00;;;;;;;;;;10366931;28;20193;-70
2024/01/09 17:59:54;;;;;;;61.57;29.00;;;;;;;;;;10363666;28;20209;-70
2024/01/09 18:04:55;;;;;;;69.03;28.93;;;;;;;;;;10367069;28;20217;-71
2024/01/09 18:09:55;;;;;;;66.70;26.93;;;;;;;;;;10366465;28;20479;-70
2024/01/09 18:14:55;;;;;;;72.70;29.60;;;;;;;;;;10366804;28;20192;-70
2024/01/09 18:19:55;;;;;;;74.13;28.30;;;;;;;;;;10362901;28;20246;-71
2024/01/09 18:24:55;;;;;;;73.70;30.40;;;;;;;;;;10366019;28;20270;-70
2024/01/09 18:29:55;;;;;;;69.00;29.10;;;;;;;;;;10365825;28;20207;-70
2024/01/09 18:34:56;;;;;;;75.27;28.57;;;;;;;;;;10365948;28;20770;-70
2024/01/09 18:39:57;;;;;;;66.67;28.00;;;;;;;;;;10362805;28;20219;-70
2024/01/09 18:44:57;;;;;;;67.03;27.03;;;;;;;;;;10365693;28;20483;-70
2024/01/09 18:49:58;;;;;;;56.17;25.43;;;;;;;;;;10365520;28;20216;-70
2024/01/09 18:55:01;;;;;;;57.20;21.20;;;;;;;;;;10365482;28;20458;-70
2024/01/09 19:00:05;;;;;;;66.70;27.23;;;;;;;;;;10362848;28;20458;-70
2024/01/09 19:05:06;;;;;;;57.73;23.27;;;;;;;;;;10365597;28;20244;-69
2024/01/09 19:10:07;;;;;;;64.00;25.67;;;;;;;;;;10370849;28;20610;-70
2024/01/09 19:15:07;;;;;;;64.27;24.57;;;;;;;;;;10369442;28;20200;-70
2024/01/09 19:20:08;;;;;;;58.30;23.88;;;;;;;;;;10371913;28;20657;-70
2024/01/09 19:25:11;;;;;;;49.33;19.13;;;;;;;;;;10371945;28;20306;-70
2024/01/09 19:30:11;;;;;;;52.13;19.37;;;;;;;;;;10372271;28;20213;-70
2024/01/09 19:35:11;;;;;;;49.23;20.27;;;;;;;;;;10369008;28;20599;-70
2024/01/09 19:40:12;;;;;;;58.73;22.60;;;;;;;;;;10371624;28;20523;-70
2024/01/09 19:45:12;;;;;;;48.63;21.73;;;;;;;;;;10371312;28;20342;-70
2024/01/09 19:50:15;;;;;;;52.57;21.47;;;;;;;;;;10371561;28;20208;-70
2024/01/09 19:55:15;;;;;;;50.20;22.20;;;;;;;;;;10368579;28;20201;-70
2024/01/09 20:00:16;;;;;;;53.93;21.53;;;;;;;;;;10371101;28;20693;-70
2024/01/09 20:05:16;;;;;;;52.27;19.53;;;;;;;;;;10371102;28;20209;-70
2024/01/09 20:10:17;;;;;;;42.87;17.87;;;;;;;;;;10370495;28;20243;-70
2024/01/09 20:15:17;;;;;;;53.67;20.10;;;;;;;;;;10368089;28;20200;-70
2024/01/09 20:20:19;;;;;;;39.97;17.97;;;;;;;;;;10369693;28;20302;-71
2024/01/09 20:25:19;;;;;;;41.87;19.37;;;;;;;;;;10370947;28;20262;-71
2024/01/09 20:30:20;;;;;;;41.40;17.67;;;;;;;;;;10368176;28;21000;-70
2024/01/09 20:35:21;;;;;;;42.93;18.00;;;;;;;;;;10369839;28;20455;-70
2024/01/09 20:40:21;;;;;;;30.13;12.77;;;;;;;;;;10369805;28;20749;-71
2024/01/09 20:45:22;;;;;;;27.47;12.33;;;;;;;;;;10369564;28;20247;-70
2024/01/09 20:50:23;;;;;;;30.43;12.20;;;;;;;;;;10366219;28;20214;-70
2024/01/09 20:55:23;;;;;;;24.07;9.77;;;;;;;;;;10368491;28;20195;-70
2024/01/09 21:00:24;;;;;;;24.90;10.23;;;;;;;;;;10369202;28;20208;-69
2024/01/09 21:05:24;;;;;;;24.60;10.50;;;;;;;;;;10362121;28;20216;-70
2024/01/09 21:10:25;;;;;;;23.80;10.30;;;;;;;;;;10355205;28;20279;-69
2024/01/09 21:15:26;;;;;;;33.47;10.43;;;;;;;;;;10357233;28;20748;-69
2024/01/09 21:20:26;;;;;;;21.30;9.57;;;;;;;;;;10353675;28;20212;-69
2024/01/09 21:25:26;;;;;;;15.30;7.47;;;;;;;;;;10367823;28;20220;-69
2024/01/09 21:30:27;;;;;;;23.00;9.23;;;;;;;;;;10363628;28;20235;-69
2024/01/09 21:35:27;;;;;;;18.87;8.03;;;;;;;;;;10366297;28;20275;-69
2024/01/09 21:40:27;;;;;;;19.07;8.50;;;;;;;;;;10367331;28;20239;-69
2024/01/09 21:45:27;;;;;;;20.10;9.00;;;;;;;;;;10366959;28;20493;-69
2024/01/09 21:50:27;;;;;;;28.17;10.30;;;;;;;;;;10364241;28;20238;-69
2024/01/09 21:55:28;;;;;;;19.03;8.60;;;;;;;;;;10366751;28;20303;-69
2024/01/09 22:00:28;;;;;;;20.70;7.43;;;;;;;;;;10366801;28;20220;-69
2024/01/09 22:05:28;;;;;;;21.13;7.20;;;;;;;;;;10363010;28;20487;-70
2024/01/09 22:10:29;;;;;;;16.10;8.00;;;;;;;;;;10364929;28;20282;-70
2024/01/09 22:15:30;;;;;;;21.77;8.70;;;;;;;;;;10366535;28;20670;-70
2024/01/09 22:20:30;;;;;;;20.07;9.23;;;;;;;;;;10366461;28;20222;-70
2024/01/09 22:25:30;;;;;;;16.10;8.37;;;;;;;;;;10363913;28;20274;-70
2024/01/09 22:30:30;;;;;;;14.70;6.43;;;;;;;;;;10396741;23;20725;-65
2024/01/09 22:35:30;;;;;;;16.73;7.37;;;;;;;;;;10404686;28;20444;-66
2024/01/09 22:40:30;;;;;;;22.20;9.00;;;;;;;;;;10393643;28;20220;-66
2024/01/09 22:45:31;;;;;;;22.10;9.17;;;;;;;;;;10373693;28;20228;-67
2024/01/09 22:50:31;;;;;;;25.37;9.37;;;;;;;;;;10368181;28;20580;-66
2024/01/09 22:55:31;;;;;;;19.30;7.53;;;;;;;;;;10373056;28;20277;-66
2024/01/09 23:00:31;;;;;;;15.67;7.97;;;;;;;;;;10373625;28;20840;-66
2024/01/09 23:05:31;;;;;;;17.10;8.53;;;;;;;;;;10373409;28;20584;-66
2024/01/09 23:10:31;;;;;;;23.23;9.33;;;;;;;;;;10370592;28;20272;-66
2024/01/09 23:15:32;;;;;;;22.97;9.00;;;;;;;;;;10373237;28;20278;-66
2024/01/09 23:20:32;;;;;;;23.67;9.60;;;;;;;;;;10372912;28;20219;-66
2024/01/09 23:25:32;;;;;;;21.70;9.13;;;;;;;;;;10372643;28;20261;-66
2024/01/09 23:30:33;;;;;;;21.90;8.03;;;;;;;;;;10369726;28;20489;-66
2024/01/09 23:35:33;;;;;;;18.57;7.60;;;;;;;;;;10372491;28;20258;-66
2024/01/09 23:40:33;;;;;;;18.37;8.60;;;;;;;;;;10372093;28;20240;-66
2024/01/09 23:45:33;;;;;;;62.47;18.15;;;;;;;;;;10367129;28;20232;-66
2024/01/09 23:50:34;;;;;;;65.30;19.80;;;;;;;;;;10371069;28;20235;-67
2024/01/09 23:55:34;;;;;;;39.03;14.20;;;;;;;;;;10370765;28;20200;-66
